MSR14 HECA-HEGN
Flight info
| Callsign | MSR14 |
|---|---|
| Flight time | N/A |
| Altitude | 29000 |
| Route | CVO L315 HGD |
| Aircraft | B738/M-SDE2E3FGHIRWXY/LB1 |
Departure
| Time | 2026-05-07 10:54 |
|---|---|
| Airport | Cairo International Airport (HECA) |
Arrival
| Time | N/A |
|---|---|
| Airport | Hurghada International Airport (HEGN) |
| Time | Latitude | Longitude | Altitude | Speed | Heading |
|---|---|---|---|---|---|
| 2026-05-07 10:21 | 30.10808 | 31.39673 | 335 ft | 0 kts | 255° |
| 2026-05-07 10:45 | 30.10809 | 31.39679 | 334 ft | 5 kts | 254° |
| 2026-05-07 10:45 | 30.10819 | 31.39716 | 336 ft | 5 kts | 251° |
| 2026-05-07 10:45 | 30.10830 | 31.39746 | 335 ft | 3 kts | 234° |
| 2026-05-07 10:45 | 30.10839 | 31.39757 | 335 ft | 2 kts | 199° |
| 2026-05-07 10:46 | 30.10850 | 31.39759 | 335 ft | 2 kts | 171° |
| 2026-05-07 10:46 | 30.10861 | 31.39756 | 334 ft | 2 kts | 165° |
| 2026-05-07 10:46 | 30.10866 | 31.39755 | 335 ft | 0 kts | 164° |
| 2026-05-07 10:48 | 30.10856 | 31.39758 | 334 ft | 5 kts | 163° |
| 2026-05-07 10:48 | 30.10793 | 31.39778 | 348 ft | 14 kts | 165° |
| 2026-05-07 10:49 | 30.10700 | 31.39807 | 349 ft | 9 kts | 165° |
| 2026-05-07 10:49 | 30.10625 | 31.39829 | 354 ft | 11 kts | 165° |
| 2026-05-07 10:49 | 30.10545 | 31.39853 | 358 ft | 14 kts | 167° |
| 2026-05-07 10:49 | 30.10444 | 31.39875 | 367 ft | 15 kts | 190° |
| 2026-05-07 10:50 | 30.10358 | 31.39788 | 365 ft | 19 kts | 227° |
| 2026-05-07 10:50 | 30.10293 | 31.39706 | 365 ft | 13 kts | 227° |
| 2026-05-07 10:50 | 30.10227 | 31.39622 | 367 ft | 13 kts | 229° |
| 2026-05-07 10:50 | 30.10153 | 31.39575 | 368 ft | 9 kts | 167° |
| 2026-05-07 10:51 | 30.10096 | 31.39624 | 373 ft | 12 kts | 140° |
| 2026-05-07 10:51 | 30.10038 | 31.39681 | 379 ft | 7 kts | 136° |
| 2026-05-07 10:51 | 30.10011 | 31.39734 | 383 ft | 9 kts | 103° |
| 2026-05-07 10:51 | 30.10010 | 31.39738 | 383 ft | 0 kts | 102° |
| 2026-05-07 10:52 | 30.10008 | 31.39751 | 384 ft | 4 kts | 99° |
| 2026-05-07 10:52 | 30.10007 | 31.39796 | 385 ft | 8 kts | 87° |
| 2026-05-07 10:52 | 30.10009 | 31.39848 | 386 ft | 11 kts | 88° |
| 2026-05-07 10:53 | 30.10034 | 31.39919 | 387 ft | 0 kts | 50° |
| 2026-05-07 10:53 | 30.10035 | 31.39920 | 387 ft | 2 kts | 50° |
| 2026-05-07 10:53 | 30.10186 | 31.40121 | 387 ft | 67 kts | 49° |
| 2026-05-07 10:53 | 30.10647 | 31.40733 | 385 ft | 132 kts | 49° |
| 2026-05-07 10:54 | 30.11360 | 31.41680 | 460 ft | 176 kts | 47° |
| 2026-05-07 10:54 | 30.12221 | 31.42832 | 904 ft | 193 kts | 48° |
| 2026-05-07 10:54 | 30.13028 | 31.43963 | 2028 ft | 170 kts | 51° |
| 2026-05-07 10:54 | 30.13403 | 31.45237 | 2906 ft | 181 kts | 93° |
| 2026-05-07 10:55 | 30.12795 | 31.46646 | 3351 ft | 215 kts | 133° |
| 2026-05-07 10:55 | 30.11682 | 31.47944 | 3597 ft | 239 kts | 133° |
| 2026-05-07 10:55 | 30.10474 | 31.49339 | 4145 ft | 249 kts | 134° |
| 2026-05-07 10:55 | 30.09243 | 31.50754 | 4859 ft | 251 kts | 134° |
| 2026-05-07 10:56 | 30.08421 | 31.51701 | 5298 ft | 254 kts | 134° |
| 2026-05-07 10:56 | 30.07123 | 31.53203 | 5729 ft | 274 kts | 134° |
| 2026-05-07 10:56 | 30.05758 | 31.54790 | 6473 ft | 283 kts | 134° |
| 2026-05-07 10:56 | 30.04356 | 31.56422 | 7204 ft | 289 kts | 134° |
| 2026-05-07 10:57 | 30.02933 | 31.58084 | 7988 ft | 293 kts | 134° |
| 2026-05-07 10:57 | 30.01490 | 31.59770 | 8778 ft | 298 kts | 135° |
| 2026-05-07 10:57 | 30.00026 | 31.61484 | 9612 ft | 302 kts | 135° |
| 2026-05-07 10:57 | 29.98538 | 31.63225 | 10347 ft | 308 kts | 135° |
| 2026-05-07 10:58 | 29.96982 | 31.65046 | 10597 ft | 331 kts | 135° |
| 2026-05-07 10:58 | 29.95308 | 31.67004 | 10849 ft | 352 kts | 135° |
| 2026-05-07 10:58 | 29.93565 | 31.69043 | 11406 ft | 360 kts | 135° |
| 2026-05-07 10:58 | 29.91791 | 31.71118 | 12122 ft | 364 kts | 135° |
| 2026-05-07 10:59 | 29.90007 | 31.73205 | 12868 ft | 367 kts | 136° |
| 2026-05-07 10:59 | 29.88226 | 31.75288 | 13586 ft | 372 kts | 136° |
| 2026-05-07 10:59 | 29.86395 | 31.77426 | 14257 ft | 377 kts | 136° |
| 2026-05-07 10:59 | 29.84547 | 31.79584 | 14940 ft | 380 kts | 136° |
| 2026-05-07 11:00 | 29.82681 | 31.81763 | 15672 ft | 383 kts | 136° |
| 2026-05-07 11:00 | 29.80796 | 31.83961 | 16404 ft | 386 kts | 136° |
| 2026-05-07 11:00 | 29.78889 | 31.86158 | 17105 ft | 389 kts | 139° |
| 2026-05-07 11:00 | 29.76762 | 31.88093 | 17768 ft | 391 kts | 149° |
| 2026-05-07 11:01 | 29.74453 | 31.89788 | 18465 ft | 394 kts | 150° |
| 2026-05-07 11:01 | 29.72109 | 31.91450 | 19067 ft | 397 kts | 151° |
| 2026-05-07 11:01 | 29.69747 | 31.93113 | 19784 ft | 397 kts | 151° |
| 2026-05-07 11:01 | 29.67401 | 31.94771 | 20572 ft | 396 kts | 151° |
| 2026-05-07 11:02 | 29.65058 | 31.96436 | 20946 ft | 393 kts | 150° |
| 2026-05-07 11:02 | 29.62763 | 31.98075 | 21082 ft | 395 kts | 150° |
| 2026-05-07 11:02 | 29.60431 | 31.99746 | 21078 ft | 394 kts | 150° |
| 2026-05-07 11:02 | 29.58110 | 32.01412 | 21086 ft | 393 kts | 150° |
| 2026-05-07 11:03 | 29.55794 | 32.03077 | 21083 ft | 392 kts | 150° |
| 2026-05-07 11:03 | 29.53479 | 32.04741 | 21083 ft | 392 kts | 150° |
| 2026-05-07 11:03 | 29.51158 | 32.06408 | 21080 ft | 392 kts | 150° |
| 2026-05-07 11:03 | 29.48848 | 32.08067 | 21074 ft | 392 kts | 150° |
| 2026-05-07 11:04 | 29.46537 | 32.09726 | 21084 ft | 392 kts | 150° |
| 2026-05-07 11:04 | 29.44218 | 32.11390 | 21054 ft | 392 kts | 150° |
| 2026-05-07 11:04 | 29.41898 | 32.13052 | 21076 ft | 393 kts | 150° |
| 2026-05-07 11:04 | 29.39574 | 32.14717 | 21073 ft | 395 kts | 150° |
| 2026-05-07 11:05 | 29.37244 | 32.16385 | 21069 ft | 394 kts | 150° |
| 2026-05-07 11:05 | 29.34954 | 32.18026 | 21067 ft | 393 kts | 150° |
| 2026-05-07 11:05 | 29.32635 | 32.19685 | 21077 ft | 393 kts | 150° |
| 2026-05-07 11:05 | 29.30318 | 32.21342 | 21068 ft | 393 kts | 150° |
| 2026-05-07 11:06 | 29.27997 | 32.23001 | 21065 ft | 392 kts | 150° |
| 2026-05-07 11:06 | 29.25677 | 32.24658 | 21067 ft | 392 kts | 150° |
| 2026-05-07 11:06 | 29.23357 | 32.26315 | 21068 ft | 392 kts | 150° |
| 2026-05-07 11:06 | 29.21041 | 32.27967 | 21062 ft | 392 kts | 150° |
| 2026-05-07 11:07 | 29.18715 | 32.29625 | 21060 ft | 392 kts | 150° |
| 2026-05-07 11:07 | 29.16397 | 32.31277 | 21065 ft | 392 kts | 150° |
| 2026-05-07 11:07 | 29.14084 | 32.32925 | 21061 ft | 393 kts | 150° |
| 2026-05-07 11:07 | 29.11782 | 32.34564 | 21060 ft | 393 kts | 150° |
| 2026-05-07 11:08 | 29.09462 | 32.36215 | 21058 ft | 393 kts | 150° |
| 2026-05-07 11:08 | 29.07143 | 32.37864 | 21058 ft | 393 kts | 150° |
| 2026-05-07 11:08 | 29.04818 | 32.39516 | 21055 ft | 393 kts | 150° |
| 2026-05-07 11:08 | 29.02494 | 32.41167 | 21053 ft | 393 kts | 150° |
| 2026-05-07 11:09 | 29.00165 | 32.42822 | 21052 ft | 393 kts | 150° |
| 2026-05-07 11:09 | 28.97833 | 32.44476 | 21048 ft | 393 kts | 150° |
| 2026-05-07 11:09 | 28.95514 | 32.46121 | 21053 ft | 393 kts | 150° |
| 2026-05-07 11:09 | 28.93188 | 32.47770 | 21047 ft | 393 kts | 150° |
| 2026-05-07 11:10 | 28.90893 | 32.49396 | 21047 ft | 393 kts | 151° |
| 2026-05-07 11:10 | 28.88539 | 32.51063 | 21049 ft | 393 kts | 151° |
| 2026-05-07 11:10 | 28.86216 | 32.52707 | 21045 ft | 393 kts | 151° |
| 2026-05-07 11:10 | 28.83923 | 32.54328 | 21039 ft | 393 kts | 151° |
| 2026-05-07 11:11 | 28.81601 | 32.55971 | 21046 ft | 392 kts | 151° |
| 2026-05-07 11:11 | 28.79279 | 32.57612 | 21047 ft | 392 kts | 151° |
| 2026-05-07 11:11 | 28.76959 | 32.59250 | 21045 ft | 392 kts | 151° |
| 2026-05-07 11:11 | 28.74637 | 32.60890 | 21044 ft | 392 kts | 151° |
| 2026-05-07 11:12 | 28.72312 | 32.62530 | 21046 ft | 392 kts | 151° |
| 2026-05-07 11:12 | 28.69988 | 32.64168 | 21045 ft | 392 kts | 151° |
| 2026-05-07 11:12 | 28.67661 | 32.65809 | 21043 ft | 392 kts | 151° |
| 2026-05-07 11:12 | 28.65342 | 32.67442 | 21034 ft | 392 kts | 151° |
| 2026-05-07 11:13 | 28.63019 | 32.69078 | 21031 ft | 392 kts | 151° |
| 2026-05-07 11:13 | 28.60697 | 32.70712 | 21025 ft | 392 kts | 151° |
| 2026-05-07 11:13 | 28.58381 | 32.72341 | 21027 ft | 392 kts | 151° |
| 2026-05-07 11:13 | 28.56088 | 32.73953 | 21025 ft | 392 kts | 151° |
| 2026-05-07 11:14 | 28.53767 | 32.75583 | 21025 ft | 392 kts | 151° |
| 2026-05-07 11:14 | 28.51446 | 32.77213 | 21022 ft | 392 kts | 151° |
| 2026-05-07 11:14 | 28.49127 | 32.78840 | 21012 ft | 392 kts | 151° |
| 2026-05-07 11:14 | 28.46807 | 32.80468 | 21017 ft | 392 kts | 151° |
| 2026-05-07 11:15 | 28.44481 | 32.82099 | 21014 ft | 392 kts | 151° |
| 2026-05-07 11:15 | 28.42158 | 32.83727 | 21015 ft | 393 kts | 152° |
| 2026-05-07 11:15 | 28.39831 | 32.85357 | 21013 ft | 393 kts | 151° |
| 2026-05-07 11:15 | 28.37499 | 32.86989 | 21013 ft | 393 kts | 151° |
| 2026-05-07 11:16 | 28.35165 | 32.88622 | 21013 ft | 393 kts | 151° |
| 2026-05-07 11:16 | 28.32837 | 32.90250 | 21011 ft | 393 kts | 151° |
| 2026-05-07 11:16 | 28.30512 | 32.91875 | 21011 ft | 393 kts | 152° |
| 2026-05-07 11:16 | 28.28186 | 32.93500 | 21009 ft | 393 kts | 151° |
| 2026-05-07 11:17 | 28.25851 | 32.95130 | 21008 ft | 392 kts | 152° |
| 2026-05-07 11:17 | 28.23529 | 32.96750 | 21006 ft | 392 kts | 152° |
| 2026-05-07 11:17 | 28.21204 | 32.98372 | 21005 ft | 392 kts | 152° |
| 2026-05-07 11:17 | 28.18877 | 32.99995 | 21003 ft | 392 kts | 152° |
| 2026-05-07 11:18 | 28.16556 | 33.01612 | 20998 ft | 392 kts | 152° |
| 2026-05-07 11:18 | 28.14260 | 33.03211 | 20999 ft | 392 kts | 152° |
| 2026-05-07 11:18 | 28.11937 | 33.04828 | 21002 ft | 392 kts | 152° |
| 2026-05-07 11:18 | 28.09611 | 33.06447 | 20997 ft | 392 kts | 152° |
| 2026-05-07 11:19 | 28.07285 | 33.08065 | 20992 ft | 392 kts | 152° |
| 2026-05-07 11:19 | 28.04960 | 33.09681 | 20987 ft | 392 kts | 152° |
| 2026-05-07 11:19 | 28.02634 | 33.11297 | 20989 ft | 392 kts | 151° |
| 2026-05-07 11:19 | 28.00351 | 33.12998 | 20988 ft | 393 kts | 148° |
| 2026-05-07 11:20 | 27.98122 | 33.14791 | 20988 ft | 393 kts | 147° |
| 2026-05-07 11:20 | 27.95917 | 33.16612 | 20986 ft | 393 kts | 147° |
| 2026-05-07 11:20 | 27.93743 | 33.18413 | 20983 ft | 392 kts | 147° |
| 2026-05-07 11:20 | 27.91541 | 33.20230 | 20983 ft | 392 kts | 147° |
| 2026-05-07 11:21 | 27.89352 | 33.22026 | 20968 ft | 383 kts | 147° |
| 2026-05-07 11:21 | 27.87210 | 33.23776 | 20967 ft | 378 kts | 147° |
| 2026-05-07 11:21 | 27.85082 | 33.25507 | 20968 ft | 374 kts | 147° |
| 2026-05-07 11:21 | 27.82972 | 33.27220 | 20972 ft | 373 kts | 147° |
| 2026-05-07 11:22 | 27.80850 | 33.28938 | 20687 ft | 375 kts | 147° |
| 2026-05-07 11:22 | 27.78742 | 33.30644 | 20348 ft | 372 kts | 147° |
| 2026-05-07 11:22 | 27.76643 | 33.32344 | 19954 ft | 370 kts | 147° |
| 2026-05-07 11:22 | 27.74560 | 33.34029 | 19567 ft | 367 kts | 147° |
| 2026-05-07 11:23 | 27.72488 | 33.35706 | 19174 ft | 365 kts | 147° |
| 2026-05-07 11:23 | 27.70430 | 33.37369 | 18781 ft | 363 kts | 147° |
| 2026-05-07 11:23 | 27.68374 | 33.39030 | 18364 ft | 362 kts | 147° |
| 2026-05-07 11:23 | 27.66327 | 33.40683 | 17920 ft | 361 kts | 147° |
| 2026-05-07 11:24 | 27.64317 | 33.42307 | 17491 ft | 359 kts | 147° |
| 2026-05-07 11:24 | 27.62292 | 33.43943 | 17081 ft | 357 kts | 147° |
| 2026-05-07 11:24 | 27.60274 | 33.45571 | 16672 ft | 354 kts | 147° |
| 2026-05-07 11:24 | 27.58276 | 33.47182 | 16277 ft | 352 kts | 147° |
| 2026-05-07 11:25 | 27.56291 | 33.48782 | 15889 ft | 350 kts | 147° |
| 2026-05-07 11:25 | 27.54306 | 33.50380 | 15486 ft | 349 kts | 147° |
| 2026-05-07 11:25 | 27.52332 | 33.51962 | 15104 ft | 347 kts | 148° |
| 2026-05-07 11:25 | 27.50233 | 33.53260 | 14671 ft | 343 kts | 159° |
| 2026-05-07 11:26 | 27.48037 | 33.54318 | 14257 ft | 342 kts | 160° |
| 2026-05-07 11:26 | 27.45838 | 33.55347 | 13859 ft | 341 kts | 160° |
| 2026-05-07 11:26 | 27.43653 | 33.56376 | 13439 ft | 340 kts | 160° |
| 2026-05-07 11:26 | 27.41480 | 33.57417 | 13022 ft | 338 kts | 159° |
| 2026-05-07 11:27 | 27.39329 | 33.58458 | 12639 ft | 335 kts | 159° |
| 2026-05-07 11:27 | 27.37192 | 33.59494 | 12242 ft | 333 kts | 160° |
| 2026-05-07 11:27 | 27.35062 | 33.60497 | 11870 ft | 330 kts | 163° |
| 2026-05-07 11:27 | 27.32872 | 33.61240 | 11483 ft | 327 kts | 168° |
| 2026-05-07 11:28 | 27.30670 | 33.61857 | 11104 ft | 325 kts | 169° |
| 2026-05-07 11:28 | 27.28483 | 33.62454 | 10723 ft | 323 kts | 169° |
| 2026-05-07 11:28 | 27.26334 | 33.63059 | 10396 ft | 321 kts | 168° |
| 2026-05-07 11:28 | 27.24206 | 33.63677 | 10274 ft | 310 kts | 168° |
| 2026-05-07 11:29 | 27.22144 | 33.64286 | 10130 ft | 302 kts | 168° |
| 2026-05-07 11:29 | 27.20144 | 33.64879 | 9985 ft | 293 kts | 168° |
| 2026-05-07 11:29 | 27.18172 | 33.65463 | 9667 ft | 290 kts | 168° |
| 2026-05-07 11:29 | 27.16246 | 33.66036 | 9361 ft | 284 kts | 168° |
| 2026-05-07 11:30 | 27.14338 | 33.66604 | 9070 ft | 282 kts | 168° |
| 2026-05-07 11:30 | 27.12440 | 33.67166 | 8708 ft | 283 kts | 168° |
| 2026-05-07 11:30 | 27.10531 | 33.67730 | 8398 ft | 282 kts | 168° |
| 2026-05-07 11:30 | 27.08633 | 33.68292 | 8095 ft | 282 kts | 169° |
| 2026-05-07 11:31 | 27.06739 | 33.68852 | 7789 ft | 281 kts | 168° |
| 2026-05-07 11:31 | 27.04852 | 33.69409 | 7492 ft | 278 kts | 169° |
| 2026-05-07 11:31 | 27.03032 | 33.69950 | 7203 ft | 269 kts | 169° |
| 2026-05-07 11:31 | 27.01248 | 33.70479 | 6950 ft | 260 kts | 168° |
| 2026-05-07 11:32 | 26.97781 | 33.71504 | 6490 ft | 262 kts | 169° |
| 2026-05-07 11:32 | 26.96073 | 33.72252 | 6283 ft | 267 kts | 148° |
| 2026-05-07 11:32 | 26.94868 | 33.73812 | 6092 ft | 268 kts | 116° |
| 2026-05-07 11:33 | 26.94510 | 33.75840 | 5739 ft | 271 kts | 84° |
| 2026-05-07 11:33 | 26.95118 | 33.77800 | 5308 ft | 267 kts | 52° |
| 2026-05-07 11:33 | 26.96392 | 33.79279 | 4900 ft | 263 kts | 37° |
| 2026-05-07 11:33 | 26.97798 | 33.80595 | 4427 ft | 264 kts | 37° |
| 2026-05-07 11:34 | 26.99188 | 33.81892 | 4187 ft | 251 kts | 36° |
| 2026-05-07 11:34 | 27.00516 | 33.83029 | 4016 ft | 229 kts | 21° |
| 2026-05-07 11:34 | 27.01968 | 33.83301 | 3894 ft | 201 kts | 353° |
| 2026-05-07 11:34 | 27.03284 | 33.83199 | 3737 ft | 186 kts | 352° |
| 2026-05-07 11:35 | 27.04563 | 33.83044 | 3379 ft | 183 kts | 348° |